createdAt,value
2018-12-16T00:01:00.517Z,11.73
2018-12-16T00:03:28.751Z,11.43
2018-12-16T00:05:56.929Z,10.70
2018-12-16T00:08:25.084Z,11.70
2018-12-16T00:10:53.255Z,11.70
2018-12-16T00:13:21.560Z,10.60
2018-12-16T00:15:49.733Z,12.47
2018-12-16T00:18:17.984Z,11.87
2018-12-16T00:20:46.187Z,12.03
2018-12-16T00:23:14.372Z,8.97
2018-12-16T00:25:42.535Z,11.70
2018-12-16T00:28:11.011Z,12.70
2018-12-16T00:30:39.214Z,11.63
2018-12-16T00:33:07.372Z,11.77
2018-12-16T00:35:35.525Z,12.30
2018-12-16T00:38:03.845Z,12.33
2018-12-16T00:40:31.987Z,11.80
2018-12-16T00:43:00.150Z,12.17
2018-12-16T00:45:28.383Z,12.47
2018-12-16T00:47:56.644Z,6.47
2018-12-16T00:50:24.803Z,12.00
2018-12-16T00:52:53.103Z,7.87
2018-12-16T00:55:21.368Z,12.57
2018-12-16T00:57:49.544Z,12.83
2018-12-16T01:00:17.799Z,12.23
2018-12-16T01:02:45.990Z,12.43
2018-12-16T01:05:14.543Z,13.00
2018-12-16T01:07:42.807Z,12.87
2018-12-16T01:10:11.531Z,8.10
2018-12-16T01:12:39.740Z,13.10
2018-12-16T01:15:08.195Z,13.57
2018-12-16T01:17:36.368Z,12.57
2018-12-16T01:20:05.919Z,12.90
2018-12-16T01:22:34.101Z,13.80
2018-12-16T01:25:02.274Z,12.67
2018-12-16T01:27:30.447Z,12.70
2018-12-16T01:29:58.616Z,10.93
2018-12-16T01:32:26.792Z,12.67
2018-12-16T01:34:54.956Z,14.13
2018-12-16T01:37:23.264Z,13.40
2018-12-16T01:39:51.431Z,13.10
2018-12-16T01:42:19.603Z,14.00
2018-12-16T01:44:47.768Z,14.50
2018-12-16T01:47:15.935Z,10.10
2018-12-16T01:49:44.212Z,12.40
2018-12-16T01:52:12.480Z,14.53
2018-12-16T01:54:40.657Z,14.43
2018-12-16T01:57:08.915Z,13.20
2018-12-16T01:59:37.091Z,14.23
2018-12-16T02:02:05.352Z,13.83
2018-12-16T02:04:33.537Z,13.27
2018-12-16T02:07:01.706Z,13.60
2018-12-16T02:09:29.899Z,13.60
2018-12-16T02:11:58.064Z,13.43
2018-12-16T02:14:29.899Z,13.03
2018-12-16T02:16:58.067Z,14.60
2018-12-16T02:19:26.644Z,14.80
2018-12-16T02:21:54.816Z,14.43
2018-12-16T02:24:22.991Z,13.07
2018-12-16T02:26:51.151Z,14.07
2018-12-16T02:29:19.324Z,13.67
2018-12-16T02:31:47.500Z,14.53
2018-12-16T02:34:15.695Z,13.87
2018-12-16T02:36:43.952Z,13.27
2018-12-16T02:39:12.127Z,15.00
2018-12-16T02:41:40.296Z,13.53
2018-12-16T02:44:08.566Z,14.70
2018-12-16T02:46:36.724Z,14.47
2018-12-16T02:49:04.939Z,14.27
2018-12-16T02:51:33.121Z,14.87
2018-12-16T02:54:01.380Z,15.07
2018-12-16T02:56:29.562Z,15.13
2018-12-16T02:58:57.730Z,13.53
2018-12-16T03:01:25.910Z,14.10
2018-12-16T03:03:54.171Z,15.80
2018-12-16T03:06:22.449Z,14.67
2018-12-16T03:08:50.616Z,13.43
2018-12-16T03:11:18.800Z,13.83
2018-12-16T03:13:46.963Z,13.60
2018-12-16T03:16:15.132Z,14.80
2018-12-16T03:18:43.300Z,15.50
2018-12-16T03:21:11.496Z,14.80
2018-12-16T03:23:39.867Z,16.03
2018-12-16T03:26:08.031Z,15.33
2018-12-16T03:28:36.244Z,16.13
2018-12-16T03:31:04.726Z,16.00
2018-12-16T03:33:32.944Z,15.07
2018-12-16T03:36:01.153Z,15.10
2018-12-16T03:38:29.317Z,15.10
2018-12-16T03:40:57.498Z,15.13
2018-12-16T03:43:25.659Z,12.57
2018-12-16T03:45:53.861Z,13.57
2018-12-16T03:48:22.224Z,14.00
2018-12-16T03:50:50.416Z,15.27
2018-12-16T03:53:19.988Z,14.90
2018-12-16T03:55:48.643Z,14.47
2018-12-16T03:58:16.790Z,15.13
2018-12-16T04:00:44.987Z,15.03
2018-12-16T04:03:13.135Z,13.47
2018-12-16T04:05:41.290Z,15.67
2018-12-16T04:08:09.468Z,13.37
2018-12-16T04:10:37.627Z,15.87
2018-12-16T04:13:05.889Z,12.50
2018-12-16T04:15:34.244Z,13.33
2018-12-16T04:18:02.405Z,15.27
2018-12-16T04:20:30.825Z,15.77
2018-12-16T04:22:58.988Z,15.87
2018-12-16T04:25:27.249Z,15.63
2018-12-16T04:27:55.404Z,16.23
2018-12-16T04:30:23.562Z,16.70
2018-12-16T04:32:51.812Z,16.00
2018-12-16T04:35:20.059Z,17.03
2018-12-16T04:37:48.216Z,14.43
2018-12-16T04:40:16.440Z,16.33
2018-12-16T04:42:44.610Z,16.23
2018-12-16T04:45:12.932Z,17.10
2018-12-16T04:47:41.087Z,17.40
2018-12-16T04:50:09.329Z,16.73
2018-12-16T04:52:37.588Z,16.20
2018-12-16T04:55:06.116Z,17.53
2018-12-16T04:57:34.282Z,19.23
2018-12-16T05:00:02.433Z,17.33
2018-12-16T05:02:30.600Z,16.43
2018-12-16T05:04:58.791Z,17.43
2018-12-16T05:07:26.984Z,16.97
2018-12-16T05:09:59.576Z,16.47
2018-12-16T05:12:27.782Z,17.13
2018-12-16T05:14:55.940Z,17.10
2018-12-16T05:17:24.100Z,15.80
2018-12-16T05:19:52.259Z,16.87
2018-12-16T05:22:20.412Z,16.10
2018-12-16T05:24:48.606Z,16.87
2018-12-16T05:27:16.748Z,15.60
2018-12-16T05:29:44.914Z,17.80
2018-12-16T05:32:13.059Z,16.37
2018-12-16T05:34:41.319Z,16.53
2018-12-16T05:37:09.469Z,17.90
2018-12-16T05:39:37.631Z,17.13
2018-12-16T05:42:05.787Z,16.40
2018-12-16T05:44:34.016Z,15.70
2018-12-16T05:47:02.165Z,15.87
2018-12-16T05:49:30.337Z,17.77
2018-12-16T05:51:58.501Z,18.10
2018-12-16T05:54:26.756Z,18.53
2018-12-16T05:56:54.911Z,15.97
2018-12-16T05:59:23.172Z,19.00
2018-12-16T06:01:51.344Z,17.80
2018-12-16T06:04:19.504Z,21.33
2018-12-16T06:06:47.665Z,19.13
2018-12-16T06:09:15.875Z,19.23
2018-12-16T06:11:44.023Z,19.67
2018-12-16T06:14:12.184Z,18.87
2018-12-16T06:16:40.482Z,22.17
2018-12-16T06:19:08.685Z,20.93
2018-12-16T06:21:36.923Z,20.40
2018-12-16T06:24:05.072Z,21.07
2018-12-16T06:26:33.232Z,21.30
2018-12-16T06:29:01.463Z,19.40
2018-12-16T06:31:29.627Z,20.13
2018-12-16T06:33:57.776Z,22.00
2018-12-16T06:36:25.936Z,20.17
2018-12-16T06:38:54.079Z,21.33
2018-12-16T06:41:22.240Z,21.50
2018-12-16T06:43:50.379Z,22.63
2018-12-16T06:46:18.535Z,21.40
2018-12-16T06:48:46.696Z,19.70
2018-12-16T06:51:14.878Z,19.83
2018-12-16T06:53:43.073Z,21.50
2018-12-16T06:56:11.265Z,22.17
2018-12-16T06:58:39.431Z,19.93
2018-12-16T07:01:07.600Z,19.90
2018-12-16T07:03:35.816Z,17.73
2018-12-16T07:06:03.987Z,20.90
2018-12-16T07:08:32.139Z,20.67
2018-12-16T07:11:00.399Z,21.00
2018-12-16T07:13:28.569Z,21.83
2018-12-16T07:15:56.865Z,21.13
2018-12-16T07:18:25.028Z,19.83
2018-12-16T07:20:53.348Z,23.70
2018-12-16T07:23:21.585Z,19.17
2018-12-16T07:25:49.856Z,18.27
2018-12-16T07:28:18.016Z,18.77
2018-12-16T07:30:46.427Z,17.63
2018-12-16T07:33:16.635Z,20.77
2018-12-16T07:35:45.068Z,22.17
2018-12-16T07:38:13.364Z,21.90
2018-12-16T07:40:41.848Z,22.73
2018-12-16T07:43:10.057Z,25.60
2018-12-16T07:45:38.286Z,21.80
2018-12-16T07:48:06.478Z,22.70
2018-12-16T07:50:34.731Z,26.27
2018-12-16T07:53:03.075Z,23.97
2018-12-16T07:55:31.224Z,27.40
2018-12-16T07:57:59.575Z,23.20
2018-12-16T08:00:27.840Z,20.80
2018-12-16T08:02:56.107Z,21.23
2018-12-16T08:05:24.292Z,24.20
2018-12-16T08:07:52.451Z,28.33
2018-12-16T08:10:20.604Z,26.43
2018-12-16T08:12:48.772Z,28.07
2018-12-16T08:15:16.980Z,27.60
2018-12-16T08:17:45.223Z,21.80
2018-12-16T08:20:13.615Z,25.37
2018-12-16T08:22:41.868Z,22.23
2018-12-16T08:25:10.239Z,25.07
2018-12-16T08:27:38.396Z,24.93
2018-12-16T08:30:07.852Z,23.27
2018-12-16T08:32:36.003Z,19.40
2018-12-16T08:35:04.677Z,19.13
2018-12-16T08:37:32.951Z,22.77
2018-12-16T08:40:01.195Z,23.60
2018-12-16T08:42:29.442Z,24.17
2018-12-16T08:44:57.612Z,23.20
2018-12-16T08:47:32.893Z,23.23
2018-12-16T08:49:55.919Z,23.53
2018-12-16T08:52:24.158Z,22.03
2018-12-16T08:54:52.438Z,22.37
2018-12-16T08:57:20.667Z,21.63
2018-12-16T08:59:48.864Z,16.33
2018-12-16T09:02:17.152Z,19.90
2018-12-16T09:04:45.321Z,15.33
2018-12-16T09:07:13.480Z,24.07
2018-12-16T09:09:42.038Z,24.27
2018-12-16T09:12:10.269Z,22.83
2018-12-16T09:14:38.560Z,25.57
2018-12-16T09:17:06.728Z,25.07
2018-12-16T09:19:35.009Z,23.40
2018-12-16T09:22:03.508Z,45.43
2018-12-16T09:24:37.215Z,34.70
2018-12-16T09:27:01.933Z,38.37
2018-12-16T09:29:30.102Z,26.63
2018-12-16T09:31:58.335Z,32.83
2018-12-16T09:34:26.627Z,27.33
2018-12-16T09:36:54.927Z,28.33
2018-12-16T09:39:23.300Z,26.37
2018-12-16T09:41:51.495Z,21.83
2018-12-16T09:44:19.688Z,25.27
2018-12-16T09:46:47.846Z,25.47
2018-12-16T09:49:16.050Z,22.50
2018-12-16T09:51:44.307Z,24.53
2018-12-16T09:54:12.552Z,25.43
2018-12-16T09:56:40.867Z,24.80
2018-12-16T09:59:09.149Z,24.23
2018-12-16T10:01:37.583Z,22.60
2018-12-16T10:04:05.847Z,23.20
2018-12-16T10:06:34.140Z,23.00
2018-12-16T10:09:02.356Z,22.80
2018-12-16T10:11:30.535Z,24.50
2018-12-16T10:13:58.699Z,21.13
2018-12-16T10:16:26.891Z,23.33
2018-12-16T10:18:55.152Z,24.10
2018-12-16T10:21:23.491Z,21.60
2018-12-16T10:23:51.768Z,24.70
2018-12-16T10:26:20.069Z,22.03
2018-12-16T10:28:48.303Z,23.20
2018-12-16T10:31:16.586Z,32.50
2018-12-16T10:33:45.936Z,26.53
2018-12-16T10:36:14.165Z,21.57
2018-12-16T10:38:42.561Z,25.63
2018-12-16T10:41:10.824Z,22.70
2018-12-16T10:43:39.229Z,28.17
2018-12-16T10:46:07.487Z,22.00
2018-12-16T10:48:35.703Z,24.53
2018-12-16T10:51:04.000Z,21.87
2018-12-16T10:53:32.435Z,24.63
2018-12-16T10:56:00.691Z,27.63
2018-12-16T10:58:28.963Z,27.03
2018-12-16T11:01:02.640Z,21.57
2018-12-16T11:03:30.999Z,24.37
2018-12-16T11:05:59.227Z,22.73
2018-12-16T11:08:27.879Z,21.40
2018-12-16T11:10:56.311Z,23.20
2018-12-16T11:13:24.527Z,18.97
2018-12-16T11:15:52.967Z,23.77
2018-12-16T11:18:21.191Z,19.47
2018-12-16T11:20:49.488Z,23.63
2018-12-16T11:23:17.886Z,23.87
2018-12-16T11:25:49.932Z,20.40
2018-12-16T11:28:18.195Z,22.83
2018-12-16T11:30:46.355Z,13.80
2018-12-16T11:33:14.578Z,25.97
2018-12-16T11:35:42.808Z,27.07
2018-12-16T11:38:11.036Z,25.33
2018-12-16T11:40:39.195Z,23.47
2018-12-16T11:43:07.574Z,20.80
2018-12-16T11:45:35.817Z,21.13
2018-12-16T11:48:04.116Z,26.13
2018-12-16T11:50:32.321Z,26.43
2018-12-16T11:53:00.736Z,25.73
2018-12-16T11:55:29.409Z,31.17
2018-12-16T11:57:57.665Z,31.80
2018-12-16T12:00:25.921Z,25.67
2018-12-16T12:02:54.108Z,20.67
2018-12-16T12:05:22.276Z,19.60
2018-12-16T12:07:50.463Z,23.97
2018-12-16T12:10:18.626Z,26.73
2018-12-16T12:12:46.808Z,40.07
2018-12-16T12:15:14.975Z,25.30
2018-12-16T12:17:43.268Z,22.53
2018-12-16T12:20:11.635Z,25.07
2018-12-16T12:22:40.100Z,22.73
2018-12-16T12:25:08.471Z,23.53
2018-12-16T12:27:36.735Z,24.73
2018-12-16T12:30:06.708Z,24.37
2018-12-16T12:32:35.189Z,23.20
2018-12-16T12:35:03.988Z,23.77
2018-12-16T12:37:32.236Z,23.83
2018-12-16T12:40:00.525Z,23.50
2018-12-16T12:42:28.748Z,22.50
2018-12-16T12:44:56.980Z,21.23
2018-12-16T12:47:25.252Z,24.77
2018-12-16T12:49:53.549Z,23.43
2018-12-16T12:52:21.760Z,22.27
2018-12-16T12:54:49.976Z,23.77
2018-12-16T12:57:18.253Z,21.77
2018-12-16T12:59:46.542Z,22.03
2018-12-16T13:02:14.923Z,23.03
2018-12-16T13:04:43.186Z,23.67
2018-12-16T13:07:11.356Z,23.77
2018-12-16T13:09:39.643Z,26.50
2018-12-16T13:12:07.805Z,24.77
2018-12-16T13:14:35.988Z,22.23
2018-12-16T13:17:04.260Z,24.30
2018-12-16T13:19:32.567Z,24.63
2018-12-16T13:22:00.729Z,23.47
2018-12-16T13:24:28.899Z,24.30
2018-12-16T13:26:57.356Z,28.60
2018-12-16T13:29:25.662Z,22.80
2018-12-16T13:31:54.488Z,24.50
2018-12-16T13:34:22.676Z,25.07
2018-12-16T13:36:50.900Z,26.07
2018-12-16T13:39:19.071Z,29.33
2018-12-16T13:41:47.242Z,25.60
2018-12-16T13:44:15.419Z,23.03
2018-12-16T13:46:43.604Z,21.67
2018-12-16T13:49:11.867Z,25.80
2018-12-16T13:51:40.248Z,25.43
2018-12-16T13:54:08.751Z,24.77
2018-12-16T13:56:37.936Z,26.77
2018-12-16T13:59:06.101Z,28.73
2018-12-16T14:01:34.279Z,28.33
2018-12-16T14:04:02.542Z,27.57
2018-12-16T14:06:30.796Z,63.83
2018-12-16T14:08:59.041Z,74.90
2018-12-16T14:11:27.273Z,42.87
2018-12-16T14:13:55.452Z,26.03
2018-12-16T14:16:24.080Z,38.53
2018-12-16T14:18:52.523Z,29.10
2018-12-16T14:21:21.390Z,30.77
2018-12-16T14:23:49.648Z,62.87
2018-12-16T14:26:17.881Z,43.90
2018-12-16T14:28:46.172Z,35.90
2018-12-16T14:31:14.342Z,43.27
2018-12-16T14:33:42.549Z,29.20
2018-12-16T14:36:10.888Z,52.20
2018-12-16T14:38:39.112Z,37.13
2018-12-16T14:41:07.277Z,27.80
2018-12-16T14:43:35.432Z,61.30
2018-12-16T14:46:03.735Z,48.87
2018-12-16T14:48:31.905Z,42.27
2018-12-16T14:51:00.086Z,57.70
2018-12-16T14:53:28.312Z,32.80
2018-12-16T14:55:56.723Z,36.53
2018-12-16T14:58:24.932Z,46.83
2018-12-16T15:00:53.245Z,38.67
2018-12-16T15:03:21.802Z,92.87
2018-12-16T15:05:50.013Z,35.53
2018-12-16T15:08:18.184Z,53.03
2018-12-16T15:10:46.408Z,47.00
2018-12-16T15:13:14.636Z,43.83
2018-12-16T15:15:42.899Z,41.13
2018-12-16T15:18:11.252Z,35.00
2018-12-16T15:20:39.559Z,34.90
2018-12-16T15:23:07.728Z,36.07
2018-12-16T15:25:36.065Z,26.20
2018-12-16T15:28:04.296Z,33.57
2018-12-16T15:30:32.472Z,29.97
2018-12-16T15:33:00.763Z,28.50
2018-12-16T15:35:28.927Z,28.60
2018-12-16T15:37:57.102Z,28.27
2018-12-16T15:40:25.278Z,23.07
2018-12-16T15:42:53.659Z,28.20
2018-12-16T15:45:21.877Z,26.67
2018-12-16T15:47:50.109Z,25.00
2018-12-16T15:50:18.417Z,28.13
2018-12-16T15:52:46.703Z,27.83
2018-12-16T15:55:14.956Z,24.33
2018-12-16T15:57:43.191Z,26.20
2018-12-16T16:00:12.204Z,26.37
2018-12-16T16:02:40.426Z,26.97
2018-12-16T16:05:08.763Z,24.83
2018-12-16T16:07:37.084Z,27.23
2018-12-16T16:10:06.156Z,28.20
2018-12-16T16:12:34.308Z,24.73
2018-12-16T16:15:02.547Z,30.23
2018-12-16T16:17:31.016Z,30.83
2018-12-16T16:19:59.255Z,29.13
2018-12-16T16:22:27.441Z,27.97
2018-12-16T16:24:55.705Z,25.83
2018-12-16T16:27:24.066Z,29.87
2018-12-16T16:29:52.350Z,29.47
2018-12-16T16:32:20.636Z,29.00
2018-12-16T16:34:48.804Z,29.37
2018-12-16T16:37:16.975Z,32.47
2018-12-16T16:39:45.140Z,32.77
2018-12-16T16:42:13.301Z,30.47
2018-12-16T16:44:41.503Z,31.30
2018-12-16T16:47:09.787Z,41.17
2018-12-16T16:49:37.963Z,32.17
2018-12-16T16:52:06.300Z,54.07
2018-12-16T16:54:34.548Z,41.97
2018-12-16T16:57:02.904Z,35.27
2018-12-16T16:59:31.075Z,38.57
2018-12-16T17:01:59.454Z,35.27
2018-12-16T17:04:27.615Z,30.17
2018-12-16T17:06:55.859Z,30.17
2018-12-16T17:09:24.084Z,31.33
2018-12-16T17:11:52.382Z,30.97
2018-12-16T17:14:20.540Z,26.07
2018-12-16T17:16:48.828Z,25.13
2018-12-16T17:19:17.328Z,29.63
2018-12-16T17:21:45.563Z,28.90
2018-12-16T17:24:13.723Z,26.87
2018-12-16T17:26:42.135Z,25.37
2018-12-16T17:29:10.287Z,32.07
2018-12-16T17:31:38.658Z,32.87
2018-12-16T17:34:06.950Z,33.47
2018-12-16T17:39:17.143Z,58.47
2018-12-16T17:41:45.320Z,50.87
2018-12-16T17:44:13.475Z,53.47
2018-12-16T17:46:41.655Z,45.73
2018-12-16T17:49:09.928Z,30.10
2018-12-16T17:51:38.307Z,41.23
2018-12-16T17:54:06.468Z,57.03
2018-12-16T17:56:37.235Z,55.23
2018-12-16T17:59:04.884Z,39.20
2018-12-16T18:01:33.157Z,42.67
2018-12-16T18:04:01.311Z,28.33
2018-12-16T18:06:29.483Z,28.20
2018-12-16T18:08:57.644Z,33.57
2018-12-16T18:11:25.968Z,36.00
2018-12-16T18:13:54.176Z,39.10
2018-12-16T18:16:22.408Z,50.27
2018-12-16T18:18:50.580Z,33.77
2018-12-16T18:21:18.767Z,30.93
2018-12-16T18:23:46.939Z,31.60
2018-12-16T18:26:15.118Z,32.60
2018-12-16T18:28:43.397Z,23.43
2018-12-16T18:31:11.669Z,24.93
2018-12-16T18:33:39.936Z,19.90
2018-12-16T18:36:08.220Z,29.03
2018-12-16T18:38:36.487Z,35.47
2018-12-16T18:41:04.895Z,32.10
2018-12-16T18:43:33.095Z,29.43
2018-12-16T18:46:01.277Z,27.73
2018-12-16T18:48:29.530Z,24.90
2018-12-16T18:50:57.680Z,19.90
2018-12-16T18:53:26.047Z,34.07
2018-12-16T18:55:54.211Z,27.10
2018-12-16T18:58:22.407Z,35.77
2018-12-16T19:00:50.795Z,32.53
2018-12-16T19:03:18.963Z,28.83
2018-12-16T19:05:47.235Z,30.07
2018-12-16T19:08:16.347Z,24.60
2018-12-16T19:10:44.707Z,31.10
2018-12-16T19:13:12.991Z,25.27
2018-12-16T19:15:41.151Z,27.80
2018-12-16T19:18:09.443Z,28.63
2018-12-16T19:20:37.787Z,31.10
2018-12-16T19:23:06.009Z,30.67
2018-12-16T19:25:34.164Z,22.97
2018-12-16T19:28:02.483Z,31.50
2018-12-16T19:30:30.728Z,28.97
2018-12-16T19:32:58.911Z,28.43
2018-12-16T19:35:27.068Z,31.13
2018-12-16T19:37:55.302Z,33.23
2018-12-16T19:40:23.533Z,26.53
2018-12-16T19:42:51.684Z,19.03
2018-12-16T19:45:19.852Z,25.00
2018-12-16T19:47:49.677Z,29.97
2018-12-16T19:50:17.988Z,24.77
2018-12-16T19:52:46.156Z,29.77
2018-12-16T19:55:15.167Z,26.87
2018-12-16T19:57:43.408Z,29.70
2018-12-16T20:00:11.840Z,25.67
2018-12-16T20:02:40.063Z,26.20
2018-12-16T20:05:13.058Z,30.63
2018-12-16T20:07:41.237Z,33.20
2018-12-16T20:10:09.632Z,33.67
2018-12-16T20:12:37.786Z,33.37
2018-12-16T20:15:06.768Z,27.13
2018-12-16T20:17:34.961Z,28.23
2018-12-16T20:20:03.367Z,29.17
2018-12-16T20:22:31.624Z,27.70
2018-12-16T20:24:59.791Z,26.90
2018-12-16T20:27:28.140Z,30.80
2018-12-16T20:29:56.472Z,28.53
2018-12-16T20:32:24.640Z,31.60
2018-12-16T20:34:52.820Z,26.17
2018-12-16T20:37:21.068Z,31.20
2018-12-16T20:39:49.348Z,36.17
2018-12-16T20:42:17.535Z,32.13
2018-12-16T20:44:45.728Z,29.87
2018-12-16T20:47:13.929Z,31.50
2018-12-16T20:49:42.095Z,32.77
2018-12-16T20:52:10.464Z,30.60
2018-12-16T20:54:38.696Z,42.87
2018-12-16T20:57:06.883Z,34.23
2018-12-16T20:59:35.053Z,41.77
2018-12-16T21:02:03.225Z,37.47
2018-12-16T21:04:31.404Z,36.83
2018-12-16T21:06:59.577Z,36.23
2018-12-16T21:09:27.734Z,33.33
2018-12-16T21:12:01.096Z,36.70
2018-12-16T21:14:35.205Z,38.87
2018-12-16T21:17:08.824Z,34.10
2018-12-16T21:19:37.228Z,34.67
2018-12-16T21:22:10.119Z,35.57
2018-12-16T21:24:38.285Z,33.67
2018-12-16T21:27:06.832Z,34.93
2018-12-16T21:29:35.180Z,33.03
2018-12-16T21:32:03.472Z,33.27
2018-12-16T21:34:31.671Z,32.87
2018-12-16T21:36:59.836Z,36.97
2018-12-16T21:39:28.007Z,113.20
2018-12-16T21:41:56.175Z,55.00
2018-12-16T21:44:24.447Z,70.37
2018-12-16T21:46:53.219Z,39.23
2018-12-16T21:49:21.377Z,34.73
2018-12-16T21:51:50.580Z,32.77
2018-12-16T21:54:18.759Z,26.27
2018-12-16T21:56:47.048Z,27.30
2018-12-16T21:59:15.325Z,28.03
2018-12-16T22:01:43.553Z,27.37
2018-12-16T22:04:11.718Z,27.00
2018-12-16T22:06:39.943Z,27.30
2018-12-16T22:09:08.641Z,26.63
2018-12-16T22:11:36.808Z,27.13
2018-12-16T22:14:05.104Z,30.73
2018-12-16T22:16:33.307Z,30.30
2018-12-16T22:19:01.539Z,29.67
2018-12-16T22:21:29.713Z,29.10
2018-12-16T22:23:57.888Z,30.13
2018-12-16T22:26:26.048Z,63.87
2018-12-16T22:28:54.247Z,28.33
2018-12-16T22:31:22.458Z,28.90
2018-12-16T22:33:50.798Z,28.20
2018-12-16T22:36:18.964Z,27.63
2018-12-16T22:38:47.147Z,26.20
2018-12-16T22:41:15.307Z,26.63
2018-12-16T22:43:43.883Z,30.03
2018-12-16T22:46:12.319Z,26.83
2018-12-16T22:48:42.269Z,26.93
2018-12-16T22:51:10.620Z,26.80
2018-12-16T22:53:38.801Z,26.83
2018-12-16T22:56:07.144Z,27.03
2018-12-16T22:58:35.327Z,26.03
2018-12-16T23:01:09.116Z,28.87
2018-12-16T23:03:37.501Z,26.90
2018-12-16T23:06:05.661Z,30.40
2018-12-16T23:08:33.815Z,30.30
2018-12-16T23:11:02.142Z,30.17
2018-12-16T23:13:30.507Z,30.07
2018-12-16T23:15:58.784Z,29.80
2018-12-16T23:18:26.955Z,26.13
2018-12-16T23:20:55.137Z,26.17
2018-12-16T23:23:23.379Z,27.33
2018-12-16T23:25:51.580Z,27.40
2018-12-16T23:28:20.032Z,27.57
2018-12-16T23:30:48.363Z,30.33
2018-12-16T23:33:16.572Z,33.03
2018-12-16T23:35:44.747Z,27.53
2018-12-16T23:38:12.960Z,27.10
2018-12-16T23:40:41.263Z,27.10
2018-12-16T23:43:09.419Z,28.17
2018-12-16T23:45:37.593Z,27.10
2018-12-16T23:48:05.745Z,27.97
2018-12-16T23:50:34.468Z,27.87
2018-12-16T23:53:02.676Z,33.33
2018-12-16T23:55:30.907Z,33.10
2018-12-16T23:58:01.235Z,32.60
